sensor_id;sensor_type;location;lat;lon;timestamp;temperature;humidity
86136;DHT22;76795;51.360;4.546;2024-03-02T00:02:06;7.10;93.70
86136;DHT22;76795;51.360;4.546;2024-03-02T00:04:32;7.10;93.60
86136;DHT22;76795;51.360;4.546;2024-03-02T00:06:58;7.00;93.60
86136;DHT22;76795;51.360;4.546;2024-03-02T00:09:24;7.10;93.60
86136;DHT22;76795;51.360;4.546;2024-03-02T00:11:50;7.10;93.70
86136;DHT22;76795;51.360;4.546;2024-03-02T00:14:16;7.00;93.90
86136;DHT22;76795;51.360;4.546;2024-03-02T00:16:42;6.90;94.10
86136;DHT22;76795;51.360;4.546;2024-03-02T00:19:09;6.90;94.20
86136;DHT22;76795;51.360;4.546;2024-03-02T00:21:35;7.00;93.70
86136;DHT22;76795;51.360;4.546;2024-03-02T00:24:21;7.10;93.70
86136;DHT22;76795;51.360;4.546;2024-03-02T00:26:51;7.00;93.70
86136;DHT22;76795;51.360;4.546;2024-03-02T00:29:17;6.90;93.80
86136;DHT22;76795;51.360;4.546;2024-03-02T00:31:44;6.90;94.00
86136;DHT22;76795;51.360;4.546;2024-03-02T00:34:13;6.90;93.70
86136;DHT22;76795;51.360;4.546;2024-03-02T00:36:39;6.90;94.10
86136;DHT22;76795;51.360;4.546;2024-03-02T00:39:05;6.90;94.10
86136;DHT22;76795;51.360;4.546;2024-03-02T00:41:33;6.80;93.90
86136;DHT22;76795;51.360;4.546;2024-03-02T00:44:06;6.90;93.90
86136;DHT22;76795;51.360;4.546;2024-03-02T00:46:37;6.80;93.80
86136;DHT22;76795;51.360;4.546;2024-03-02T00:49:05;6.80;93.90
86136;DHT22;76795;51.360;4.546;2024-03-02T00:51:32;6.70;94.00
86136;DHT22;76795;51.360;4.546;2024-03-02T00:54:00;6.70;94.00
86136;DHT22;76795;51.360;4.546;2024-03-02T00:56:29;6.70;94.20
86136;DHT22;76795;51.360;4.546;2024-03-02T00:58:55;6.70;94.30
86136;DHT22;76795;51.360;4.546;2024-03-02T01:01:21;6.80;94.20
86136;DHT22;76795;51.360;4.546;2024-03-02T01:03:47;6.80;93.90
86136;DHT22;76795;51.360;4.546;2024-03-02T01:06:14;6.80;93.90
86136;DHT22;76795;51.360;4.546;2024-03-02T01:08:40;6.80;93.90
86136;DHT22;76795;51.360;4.546;2024-03-02T01:11:06;6.80;94.00
86136;DHT22;76795;51.360;4.546;2024-03-02T01:13:32;6.70;93.90
86136;DHT22;76795;51.360;4.546;2024-03-02T01:15:58;6.70;94.10
86136;DHT22;76795;51.360;4.546;2024-03-02T01:18:24;6.70;94.00
86136;DHT22;76795;51.360;4.546;2024-03-02T01:20:50;6.80;94.00
86136;DHT22;76795;51.360;4.546;2024-03-02T01:23:24;6.80;94.00
86136;DHT22;76795;51.360;4.546;2024-03-02T01:25:50;6.70;94.00
86136;DHT22;76795;51.360;4.546;2024-03-02T01:28:17;6.60;94.10
86136;DHT22;76795;51.360;4.546;2024-03-02T01:30:42;6.70;94.40
86136;DHT22;76795;51.360;4.546;2024-03-02T01:33:08;6.60;94.40
86136;DHT22;76795;51.360;4.546;2024-03-02T01:35:34;6.50;94.50
86136;DHT22;76795;51.360;4.546;2024-03-02T01:38:00;6.50;94.70
86136;DHT22;76795;51.360;4.546;2024-03-02T01:40:26;6.50;94.50
86136;DHT22;76795;51.360;4.546;2024-03-02T01:42:53;6.60;94.40
86136;DHT22;76795;51.360;4.546;2024-03-02T01:45:24;6.60;94.40
86136;DHT22;76795;51.360;4.546;2024-03-02T01:47:50;6.60;94.10
86136;DHT22;76795;51.360;4.546;2024-03-02T01:50:23;6.60;94.10
86136;DHT22;76795;51.360;4.546;2024-03-02T01:52:49;6.60;94.40
86136;DHT22;76795;51.360;4.546;2024-03-02T01:55:15;6.60;94.20
86136;DHT22;76795;51.360;4.546;2024-03-02T01:57:41;6.60;94.10
86136;DHT22;76795;51.360;4.546;2024-03-02T02:00:07;6.60;94.10
86136;DHT22;76795;51.360;4.546;2024-03-02T02:02:34;6.60;94.00
86136;DHT22;76795;51.360;4.546;2024-03-02T02:04:59;6.70;94.00
86136;DHT22;76795;51.360;4.546;2024-03-02T02:07:25;6.60;94.00
86136;DHT22;76795;51.360;4.546;2024-03-02T02:09:51;6.70;93.90
86136;DHT22;76795;51.360;4.546;2024-03-02T02:12:17;6.60;93.90
86136;DHT22;76795;51.360;4.546;2024-03-02T02:14:49;6.60;93.90
86136;DHT22;76795;51.360;4.546;2024-03-02T02:17:15;6.60;93.80
86136;DHT22;76795;51.360;4.546;2024-03-02T02:19:42;6.50;93.90
86136;DHT22;76795;51.360;4.546;2024-03-02T02:22:11;6.50;93.90
86136;DHT22;76795;51.360;4.546;2024-03-02T02:24:40;6.50;94.10
86136;DHT22;76795;51.360;4.546;2024-03-02T02:27:10;6.50;94.20
86136;DHT22;76795;51.360;4.546;2024-03-02T02:29:36;6.50;93.90
86136;DHT22;76795;51.360;4.546;2024-03-02T02:32:02;6.50;93.90
86136;DHT22;76795;51.360;4.546;2024-03-02T02:34:28;6.50;93.90
86136;DHT22;76795;51.360;4.546;2024-03-02T02:36:53;6.50;94.00
86136;DHT22;76795;51.360;4.546;2024-03-02T02:39:21;6.50;94.20
86136;DHT22;76795;51.360;4.546;2024-03-02T02:41:48;6.50;94.10
86136;DHT22;76795;51.360;4.546;2024-03-02T02:44:13;6.40;94.10
86136;DHT22;76795;51.360;4.546;2024-03-02T02:46:40;6.50;94.00
86136;DHT22;76795;51.360;4.546;2024-03-02T02:49:06;6.40;93.90
86136;DHT22;76795;51.360;4.546;2024-03-02T02:51:32;6.40;93.70
86136;DHT22;76795;51.360;4.546;2024-03-02T02:53:57;6.30;94.00
86136;DHT22;76795;51.360;4.546;2024-03-02T02:56:23;6.20;94.10
86136;DHT22;76795;51.360;4.546;2024-03-02T02:58:49;6.20;94.00
86136;DHT22;76795;51.360;4.546;2024-03-02T03:01:15;6.20;94.00
86136;DHT22;76795;51.360;4.546;2024-03-02T03:03:43;6.20;93.90
86136;DHT22;76795;51.360;4.546;2024-03-02T03:06:09;6.20;93.70
86136;DHT22;76795;51.360;4.546;2024-03-02T03:08:35;6.20;93.80
86136;DHT22;76795;51.360;4.546;2024-03-02T03:11:01;6.10;93.90
86136;DHT22;76795;51.360;4.546;2024-03-02T03:13:26;6.10;94.20
86136;DHT22;76795;51.360;4.546;2024-03-02T03:15:52;6.10;94.00
86136;DHT22;76795;51.360;4.546;2024-03-02T03:18:18;6.10;94.00
86136;DHT22;76795;51.360;4.546;2024-03-02T03:20:44;6.10;94.10
86136;DHT22;76795;51.360;4.546;2024-03-02T03:23:09;6.10;94.10
86136;DHT22;76795;51.360;4.546;2024-03-02T03:25:40;6.10;94.10
86136;DHT22;76795;51.360;4.546;2024-03-02T03:28:07;6.20;94.10
86136;DHT22;76795;51.360;4.546;2024-03-02T03:30:36;6.20;94.00
86136;DHT22;76795;51.360;4.546;2024-03-02T03:33:02;6.30;93.80
86136;DHT22;76795;51.360;4.546;2024-03-02T03:35:27;6.30;93.70
86136;DHT22;76795;51.360;4.546;2024-03-02T03:37:53;6.30;93.50
86136;DHT22;76795;51.360;4.546;2024-03-02T03:40:18;6.30;93.50
86136;DHT22;76795;51.360;4.546;2024-03-02T03:42:44;6.30;93.50
86136;DHT22;76795;51.360;4.546;2024-03-02T03:45:10;6.40;93.40
86136;DHT22;76795;51.360;4.546;2024-03-02T03:47:36;6.40;93.50
86136;DHT22;76795;51.360;4.546;2024-03-02T03:50:01;6.40;93.30
86136;DHT22;76795;51.360;4.546;2024-03-02T03:52:30;6.50;93.10
86136;DHT22;76795;51.360;4.546;2024-03-02T03:54:55;6.40;93.20
86136;DHT22;76795;51.360;4.546;2024-03-02T03:57:21;6.40;93.70
86136;DHT22;76795;51.360;4.546;2024-03-02T03:59:46;6.40;93.30
86136;DHT22;76795;51.360;4.546;2024-03-02T04:02:12;6.40;93.10
86136;DHT22;76795;51.360;4.546;2024-03-02T04:04:38;6.40;93.00
86136;DHT22;76795;51.360;4.546;2024-03-02T04:07:04;6.50;93.00
86136;DHT22;76795;51.360;4.546;2024-03-02T04:09:29;6.50;92.90
86136;DHT22;76795;51.360;4.546;2024-03-02T04:11:55;6.40;92.70
86136;DHT22;76795;51.360;4.546;2024-03-02T04:14:21;6.40;92.80
86136;DHT22;76795;51.360;4.546;2024-03-02T04:16:46;6.50;92.50
86136;DHT22;76795;51.360;4.546;2024-03-02T04:19:12;6.40;92.80
86136;DHT22;76795;51.360;4.546;2024-03-02T04:21:38;6.40;92.70
86136;DHT22;76795;51.360;4.546;2024-03-02T04:24:04;6.40;92.40
86136;DHT22;76795;51.360;4.546;2024-03-02T04:26:29;6.30;92.40
86136;DHT22;76795;51.360;4.546;2024-03-02T04:28:55;6.30;92.50
86136;DHT22;76795;51.360;4.546;2024-03-02T04:31:21;6.30;92.50
86136;DHT22;76795;51.360;4.546;2024-03-02T04:33:46;6.20;92.50
86136;DHT22;76795;51.360;4.546;2024-03-02T04:36:12;6.10;92.50
86136;DHT22;76795;51.360;4.546;2024-03-02T04:38:38;6.10;92.80
86136;DHT22;76795;51.360;4.546;2024-03-02T04:41:04;6.20;92.90
86136;DHT22;76795;51.360;4.546;2024-03-02T04:43:32;6.20;92.70
86136;DHT22;76795;51.360;4.546;2024-03-02T04:45:58;6.10;92.80
86136;DHT22;76795;51.360;4.546;2024-03-02T04:48:24;6.20;92.60
86136;DHT22;76795;51.360;4.546;2024-03-02T04:50:50;6.20;92.70
86136;DHT22;76795;51.360;4.546;2024-03-02T04:53:15;6.20;92.70
86136;DHT22;76795;51.360;4.546;2024-03-02T04:55:41;6.20;92.60
86136;DHT22;76795;51.360;4.546;2024-03-02T04:58:07;6.20;92.50
86136;DHT22;76795;51.360;4.546;2024-03-02T05:00:33;6.10;92.60
86136;DHT22;76795;51.360;4.546;2024-03-02T05:02:58;6.20;92.50
86136;DHT22;76795;51.360;4.546;2024-03-02T05:05:24;6.10;92.70
86136;DHT22;76795;51.360;4.546;2024-03-02T05:07:50;6.00;92.90
86136;DHT22;76795;51.360;4.546;2024-03-02T05:10:15;6.10;92.90
86136;DHT22;76795;51.360;4.546;2024-03-02T05:12:41;6.10;92.60
86136;DHT22;76795;51.360;4.546;2024-03-02T05:15:11;6.10;92.80
86136;DHT22;76795;51.360;4.546;2024-03-02T05:17:38;6.20;92.70
86136;DHT22;76795;51.360;4.546;2024-03-02T05:20:05;6.20;92.60
86136;DHT22;76795;51.360;4.546;2024-03-02T05:22:31;6.10;92.50
86136;DHT22;76795;51.360;4.546;2024-03-02T05:24:57;6.10;92.70
86136;DHT22;76795;51.360;4.546;2024-03-02T05:27:24;6.10;93.10
86136;DHT22;76795;51.360;4.546;2024-03-02T05:29:50;6.00;92.50
86136;DHT22;76795;51.360;4.546;2024-03-02T05:32:15;6.00;92.50
86136;DHT22;76795;51.360;4.546;2024-03-02T05:34:41;6.00;92.40
86136;DHT22;76795;51.360;4.546;2024-03-02T05:37:06;5.90;92.40
86136;DHT22;76795;51.360;4.546;2024-03-02T05:39:32;5.90;92.50
86136;DHT22;76795;51.360;4.546;2024-03-02T05:41:58;5.80;92.70
86136;DHT22;76795;51.360;4.546;2024-03-02T05:44:23;5.80;92.70
86136;DHT22;76795;51.360;4.546;2024-03-02T05:46:49;5.80;92.70
86136;DHT22;76795;51.360;4.546;2024-03-02T05:49:15;5.80;92.50
86136;DHT22;76795;51.360;4.546;2024-03-02T05:51:41;5.70;92.80
86136;DHT22;76795;51.360;4.546;2024-03-02T05:54:07;5.70;92.90
86136;DHT22;76795;51.360;4.546;2024-03-02T05:56:32;5.70;92.90
86136;DHT22;76795;51.360;4.546;2024-03-02T05:58:58;5.60;92.90
86136;DHT22;76795;51.360;4.546;2024-03-02T06:01:43;5.60;93.00
86136;DHT22;76795;51.360;4.546;2024-03-02T06:04:09;5.60;93.00
86136;DHT22;76795;51.360;4.546;2024-03-02T06:06:36;5.60;93.00
86136;DHT22;76795;51.360;4.546;2024-03-02T06:09:03;5.60;93.10
86136;DHT22;76795;51.360;4.546;2024-03-02T06:11:38;5.50;93.10
86136;DHT22;76795;51.360;4.546;2024-03-02T06:14:04;5.50;93.10
86136;DHT22;76795;51.360;4.546;2024-03-02T06:16:30;5.40;93.10
86136;DHT22;76795;51.360;4.546;2024-03-02T06:18:56;5.40;93.20
86136;DHT22;76795;51.360;4.546;2024-03-02T06:21:23;5.40;93.20
86136;DHT22;76795;51.360;4.546;2024-03-02T06:23:49;5.40;93.30
86136;DHT22;76795;51.360;4.546;2024-03-02T06:26:15;5.30;93.20
86136;DHT22;76795;51.360;4.546;2024-03-02T06:28:41;5.30;93.30
86136;DHT22;76795;51.360;4.546;2024-03-02T06:31:06;5.40;93.20
86136;DHT22;76795;51.360;4.546;2024-03-02T06:33:32;5.40;93.30
86136;DHT22;76795;51.360;4.546;2024-03-02T06:35:58;5.30;93.20
86136;DHT22;76795;51.360;4.546;2024-03-02T06:38:24;5.30;93.60
86136;DHT22;76795;51.360;4.546;2024-03-02T06:40:49;5.30;93.40
86136;DHT22;76795;51.360;4.546;2024-03-02T06:43:15;5.30;93.40
86136;DHT22;76795;51.360;4.546;2024-03-02T06:45:41;5.30;93.30
86136;DHT22;76795;51.360;4.546;2024-03-02T06:48:07;5.30;93.40
86136;DHT22;76795;51.360;4.546;2024-03-02T06:50:32;5.40;93.30
86136;DHT22;76795;51.360;4.546;2024-03-02T06:52:58;5.40;93.20
86136;DHT22;76795;51.360;4.546;2024-03-02T06:55:24;5.40;93.10
86136;DHT22;76795;51.360;4.546;2024-03-02T06:57:50;5.30;93.20
86136;DHT22;76795;51.360;4.546;2024-03-02T07:00:16;5.30;93.20
86136;DHT22;76795;51.360;4.546;2024-03-02T07:02:44;5.30;93.10
86136;DHT22;76795;51.360;4.546;2024-03-02T07:05:10;5.30;93.20
86136;DHT22;76795;51.360;4.546;2024-03-02T07:07:37;5.30;93.20
86136;DHT22;76795;51.360;4.546;2024-03-02T07:10:06;5.30;93.20
86136;DHT22;76795;51.360;4.546;2024-03-02T07:12:33;5.30;93.30
86136;DHT22;76795;51.360;4.546;2024-03-02T07:14:58;5.30;93.30
86136;DHT22;76795;51.360;4.546;2024-03-02T07:17:31;5.30;93.30
86136;DHT22;76795;51.360;4.546;2024-03-02T07:19:57;5.40;93.10
86136;DHT22;76795;51.360;4.546;2024-03-02T07:22:23;5.40;93.10
86136;DHT22;76795;51.360;4.546;2024-03-02T07:24:49;5.40;93.20
86136;DHT22;76795;51.360;4.546;2024-03-02T07:27:16;5.40;93.10
86136;DHT22;76795;51.360;4.546;2024-03-02T07:29:42;5.40;93.00
86136;DHT22;76795;51.360;4.546;2024-03-02T07:32:09;5.50;93.00
86136;DHT22;76795;51.360;4.546;2024-03-02T07:34:35;5.60;92.70
86136;DHT22;76795;51.360;4.546;2024-03-02T07:37:01;5.50;92.80
86136;DHT22;76795;51.360;4.546;2024-03-02T07:39:27;5.60;92.80
86136;DHT22;76795;51.360;4.546;2024-03-02T07:41:53;5.60;92.80
86136;DHT22;76795;51.360;4.546;2024-03-02T07:44:19;5.70;92.80
86136;DHT22;76795;51.360;4.546;2024-03-02T07:46:45;5.80;92.70
86136;DHT22;76795;51.360;4.546;2024-03-02T07:49:20;5.90;92.30
86136;DHT22;76795;51.360;4.546;2024-03-02T07:51:46;6.00;92.10
86136;DHT22;76795;51.360;4.546;2024-03-02T07:54:11;6.10;91.60
86136;DHT22;76795;51.360;4.546;2024-03-02T07:56:37;6.20;91.80
86136;DHT22;76795;51.360;4.546;2024-03-02T07:59:03;6.20;91.60
86136;DHT22;76795;51.360;4.546;2024-03-02T08:01:30;6.20;91.50
86136;DHT22;76795;51.360;4.546;2024-03-02T08:04:03;6.20;91.80
86136;DHT22;76795;51.360;4.546;2024-03-02T08:06:30;6.30;91.80
86136;DHT22;76795;51.360;4.546;2024-03-02T08:08:59;6.40;91.60
86136;DHT22;76795;51.360;4.546;2024-03-02T08:11:26;6.40;91.50
86136;DHT22;76795;51.360;4.546;2024-03-02T08:13:56;6.50;91.30
86136;DHT22;76795;51.360;4.546;2024-03-02T08:16:23;6.70;91.10
86136;DHT22;76795;51.360;4.546;2024-03-02T08:18:49;6.70;90.80
86136;DHT22;76795;51.360;4.546;2024-03-02T08:21:15;6.70;91.00
86136;DHT22;76795;51.360;4.546;2024-03-02T08:23:41;6.70;91.00
86136;DHT22;76795;51.360;4.546;2024-03-02T08:26:08;6.70;90.80
86136;DHT22;76795;51.360;4.546;2024-03-02T08:28:34;6.70;91.00
86136;DHT22;76795;51.360;4.546;2024-03-02T08:31:00;6.80;90.80
86136;DHT22;76795;51.360;4.546;2024-03-02T08:33:25;6.90;90.50
86136;DHT22;76795;51.360;4.546;2024-03-02T08:35:51;7.00;89.50
86136;DHT22;76795;51.360;4.546;2024-03-02T08:38:17;7.00;90.60
86136;DHT22;76795;51.360;4.546;2024-03-02T08:40:43;7.10;88.20
86136;DHT22;76795;51.360;4.546;2024-03-02T08:43:09;7.10;88.80
86136;DHT22;76795;51.360;4.546;2024-03-02T08:45:35;7.20;89.50
86136;DHT22;76795;51.360;4.546;2024-03-02T08:48:01;7.20;89.20
86136;DHT22;76795;51.360;4.546;2024-03-02T08:50:26;7.40;88.70
86136;DHT22;76795;51.360;4.546;2024-03-02T08:52:52;7.50;87.70
86136;DHT22;76795;51.360;4.546;2024-03-02T08:55:18;7.60;87.60
86136;DHT22;76795;51.360;4.546;2024-03-02T08:57:43;7.60;87.70
86136;DHT22;76795;51.360;4.546;2024-03-02T09:00:09;7.60;85.70
86136;DHT22;76795;51.360;4.546;2024-03-02T09:02:35;7.70;86.20
86136;DHT22;76795;51.360;4.546;2024-03-02T09:05:01;7.80;86.00
86136;DHT22;76795;51.360;4.546;2024-03-02T09:07:27;7.80;85.30
86136;DHT22;76795;51.360;4.546;2024-03-02T09:09:52;7.90;84.50
86136;DHT22;76795;51.360;4.546;2024-03-02T09:12:19;7.90;84.30
86136;DHT22;76795;51.360;4.546;2024-03-02T09:14:45;8.00;84.10
86136;DHT22;76795;51.360;4.546;2024-03-02T09:17:12;8.10;84.40
86136;DHT22;76795;51.360;4.546;2024-03-02T09:19:38;8.20;83.70
86136;DHT22;76795;51.360;4.546;2024-03-02T09:22:04;8.30;83.30
86136;DHT22;76795;51.360;4.546;2024-03-02T09:24:31;8.30;83.80
86136;DHT22;76795;51.360;4.546;2024-03-02T09:26:58;8.30;84.10
86136;DHT22;76795;51.360;4.546;2024-03-02T09:29:24;8.40;82.20
86136;DHT22;76795;51.360;4.546;2024-03-02T09:31:50;8.50;83.00
86136;DHT22;76795;51.360;4.546;2024-03-02T09:34:17;8.50;82.40
86136;DHT22;76795;51.360;4.546;2024-03-02T09:36:43;8.60;83.00
86136;DHT22;76795;51.360;4.546;2024-03-02T09:39:09;8.70;81.20
86136;DHT22;76795;51.360;4.546;2024-03-02T09:41:38;8.90;81.70
86136;DHT22;76795;51.360;4.546;2024-03-02T09:44:06;8.90;79.00
86136;DHT22;76795;51.360;4.546;2024-03-02T09:46:32;9.00;79.70
86136;DHT22;76795;51.360;4.546;2024-03-02T09:48:58;9.00;79.20
86136;DHT22;76795;51.360;4.546;2024-03-02T09:51:24;9.00;78.30
86136;DHT22;76795;51.360;4.546;2024-03-02T09:53:50;9.00;78.30
86136;DHT22;76795;51.360;4.546;2024-03-02T09:56:16;9.10;77.90
86136;DHT22;76795;51.360;4.546;2024-03-02T09:58:44;9.20;77.60
86136;DHT22;76795;51.360;4.546;2024-03-02T10:01:10;9.20;77.10
86136;DHT22;76795;51.360;4.546;2024-03-02T10:03:37;9.30;77.80
86136;DHT22;76795;51.360;4.546;2024-03-02T10:06:25;9.40;76.80
86136;DHT22;76795;51.360;4.546;2024-03-02T10:08:51;9.40;75.30
86136;DHT22;76795;51.360;4.546;2024-03-02T10:11:27;9.50;76.10
86136;DHT22;76795;51.360;4.546;2024-03-02T10:14:10;9.50;76.40
86136;DHT22;76795;51.360;4.546;2024-03-02T10:16:43;9.60;74.60
86136;DHT22;76795;51.360;4.546;2024-03-02T10:19:19;9.50;74.90
86136;DHT22;76795;51.360;4.546;2024-03-02T10:21:46;9.60;74.20
86136;DHT22;76795;51.360;4.546;2024-03-02T10:24:12;9.80;75.60
86136;DHT22;76795;51.360;4.546;2024-03-02T10:26:38;10.00;75.70
86136;DHT22;76795;51.360;4.546;2024-03-02T10:29:04;10.20;75.00
86136;DHT22;76795;51.360;4.546;2024-03-02T10:31:30;10.30;73.90
86136;DHT22;76795;51.360;4.546;2024-03-02T10:33:57;10.40;73.60
86136;DHT22;76795;51.360;4.546;2024-03-02T10:36:23;10.40;73.20
86136;DHT22;76795;51.360;4.546;2024-03-02T10:38:49;10.60;73.10
86136;DHT22;76795;51.360;4.546;2024-03-02T10:41:26;10.80;73.70
86136;DHT22;76795;51.360;4.546;2024-03-02T10:43:56;10.90;71.80
86136;DHT22;76795;51.360;4.546;2024-03-02T10:46:33;11.10;71.50
86136;DHT22;76795;51.360;4.546;2024-03-02T10:49:00;11.30;71.60
86136;DHT22;76795;51.360;4.546;2024-03-02T10:51:30;11.50;70.90
86136;DHT22;76795;51.360;4.546;2024-03-02T10:53:59;11.60;71.00
86136;DHT22;76795;51.360;4.546;2024-03-02T10:56:33;11.50;69.90
86136;DHT22;76795;51.360;4.546;2024-03-02T10:59:31;11.60;69.10
86136;DHT22;76795;51.360;4.546;2024-03-02T11:01:59;11.50;68.50
86136;DHT22;76795;51.360;4.546;2024-03-02T11:04:27;11.50;69.70
86136;DHT22;76795;51.360;4.546;2024-03-02T11:07:17;11.50;69.40
86136;DHT22;76795;51.360;4.546;2024-03-02T11:09:58;11.60;69.50
86136;DHT22;76795;51.360;4.546;2024-03-02T11:12:34;11.50;71.60
86136;DHT22;76795;51.360;4.546;2024-03-02T11:15:04;11.50;69.10
86136;DHT22;76795;51.360;4.546;2024-03-02T11:17:35;11.50;69.00
86136;DHT22;76795;51.360;4.546;2024-03-02T11:20:03;11.60;68.70
86136;DHT22;76795;51.360;4.546;2024-03-02T11:22:35;11.70;68.70
86136;DHT22;76795;51.360;4.546;2024-03-02T11:25:01;11.70;67.20
86136;DHT22;76795;51.360;4.546;2024-03-02T11:32:59;11.70;67.50
86136;DHT22;76795;51.360;4.546;2024-03-02T11:35:26;11.80;67.30
86136;DHT22;76795;51.360;4.546;2024-03-02T11:37:54;11.90;68.70
86136;DHT22;76795;51.360;4.546;2024-03-02T11:40:24;12.10;68.60
86136;DHT22;76795;51.360;4.546;2024-03-02T11:42:50;12.20;67.10
86136;DHT22;76795;51.360;4.546;2024-03-02T11:45:17;12.00;66.60
86136;DHT22;76795;51.360;4.546;2024-03-02T11:47:58;11.80;67.10
86136;DHT22;76795;51.360;4.546;2024-03-02T11:50:34;11.80;67.10
86136;DHT22;76795;51.360;4.546;2024-03-02T11:53:05;11.90;67.00
86136;DHT22;76795;51.360;4.546;2024-03-02T11:55:37;11.90;66.30
86136;DHT22;76795;51.360;4.546;2024-03-02T11:58:04;12.00;66.30
86136;DHT22;76795;51.360;4.546;2024-03-02T12:00:30;12.10;65.30
86136;DHT22;76795;51.360;4.546;2024-03-02T12:03:08;12.00;64.60
86136;DHT22;76795;51.360;4.546;2024-03-02T12:05:35;12.10;64.90
86136;DHT22;76795;51.360;4.546;2024-03-02T12:08:03;12.10;64.80
86136;DHT22;76795;51.360;4.546;2024-03-02T12:10:30;12.10;64.00
86136;DHT22;76795;51.360;4.546;2024-03-02T12:12:57;12.00;63.30
86136;DHT22;76795;51.360;4.546;2024-03-02T12:15:27;12.00;64.40
86136;DHT22;76795;51.360;4.546;2024-03-02T12:17:57;12.10;65.50
86136;DHT22;76795;51.360;4.546;2024-03-02T12:20:23;12.30;65.20
86136;DHT22;76795;51.360;4.546;2024-03-02T12:22:51;12.40;64.30
86136;DHT22;76795;51.360;4.546;2024-03-02T12:25:22;12.50;64.70
86136;DHT22;76795;51.360;4.546;2024-03-02T12:27:49;12.60;65.30
86136;DHT22;76795;51.360;4.546;2024-03-02T12:30:17;12.50;65.40
86136;DHT22;76795;51.360;4.546;2024-03-02T12:32:43;12.70;65.80
86136;DHT22;76795;51.360;4.546;2024-03-02T12:35:10;12.80;64.40
86136;DHT22;76795;51.360;4.546;2024-03-02T12:37:46;12.70;64.70
86136;DHT22;76795;51.360;4.546;2024-03-02T12:40:13;12.70;65.70
86136;DHT22;76795;51.360;4.546;2024-03-02T12:42:40;12.70;64.60
86136;DHT22;76795;51.360;4.546;2024-03-02T12:45:07;12.60;64.20
86136;DHT22;76795;51.360;4.546;2024-03-02T12:47:34;12.70;65.10
86136;DHT22;76795;51.360;4.546;2024-03-02T12:50:00;13.00;65.30
86136;DHT22;76795;51.360;4.546;2024-03-02T12:52:26;13.10;62.80
86136;DHT22;76795;51.360;4.546;2024-03-02T12:54:52;13.00;63.60
86136;DHT22;76795;51.360;4.546;2024-03-02T12:57:19;13.00;65.30
86136;DHT22;76795;51.360;4.546;2024-03-02T12:59:47;13.00;64.30
86136;DHT22;76795;51.360;4.546;2024-03-02T13:02:20;13.00;64.80
86136;DHT22;76795;51.360;4.546;2024-03-02T13:04:53;13.00;64.30
86136;DHT22;76795;51.360;4.546;2024-03-02T13:07:25;12.90;62.80
86136;DHT22;76795;51.360;4.546;2024-03-02T13:09:51;12.70;64.90
86136;DHT22;76795;51.360;4.546;2024-03-02T13:12:18;12.60;64.30
86136;DHT22;76795;51.360;4.546;2024-03-02T13:14:47;12.70;66.70
86136;DHT22;76795;51.360;4.546;2024-03-02T13:17:13;12.80;65.60
86136;DHT22;76795;51.360;4.546;2024-03-02T13:22:19;12.70;64.20
86136;DHT22;76795;51.360;4.546;2024-03-02T13:24:44;12.60;64.60
86136;DHT22;76795;51.360;4.546;2024-03-02T13:27:10;12.50;65.50
86136;DHT22;76795;51.360;4.546;2024-03-02T13:29:36;12.70;64.70
86136;DHT22;76795;51.360;4.546;2024-03-02T13:32:02;13.00;66.10
86136;DHT22;76795;51.360;4.546;2024-03-02T13:34:29;13.20;64.50
86136;DHT22;76795;51.360;4.546;2024-03-02T13:36:54;13.50;63.80
86136;DHT22;76795;51.360;4.546;2024-03-02T13:39:20;13.50;64.80
86136;DHT22;76795;51.360;4.546;2024-03-02T13:41:46;13.50;63.80
86136;DHT22;76795;51.360;4.546;2024-03-02T13:44:21;13.50;63.40
86136;DHT22;76795;51.360;4.546;2024-03-02T13:46:47;13.20;63.50
86136;DHT22;76795;51.360;4.546;2024-03-02T13:49:14;13.10;63.00
86136;DHT22;76795;51.360;4.546;2024-03-02T13:51:39;13.00;63.50
86136;DHT22;76795;51.360;4.546;2024-03-02T13:54:05;12.90;64.40
86136;DHT22;76795;51.360;4.546;2024-03-02T13:56:31;13.00;64.70
86136;DHT22;76795;51.360;4.546;2024-03-02T13:58:58;13.00;64.20
86136;DHT22;76795;51.360;4.546;2024-03-02T14:01:24;12.90;64.30
86136;DHT22;76795;51.360;4.546;2024-03-02T14:03:50;12.90;64.50
86136;DHT22;76795;51.360;4.546;2024-03-02T14:06:16;12.80;64.50
86136;DHT22;76795;51.360;4.546;2024-03-02T14:08:42;12.70;64.60
86136;DHT22;76795;51.360;4.546;2024-03-02T14:11:10;12.70;64.40
86136;DHT22;76795;51.360;4.546;2024-03-02T14:13:40;12.70;65.40
86136;DHT22;76795;51.360;4.546;2024-03-02T14:16:06;12.70;66.00
86136;DHT22;76795;51.360;4.546;2024-03-02T14:18:32;12.80;66.60
86136;DHT22;76795;51.360;4.546;2024-03-02T14:20:58;12.90;65.70
86136;DHT22;76795;51.360;4.546;2024-03-02T14:23:23;12.80;65.30
86136;DHT22;76795;51.360;4.546;2024-03-02T14:25:51;12.70;64.90
86136;DHT22;76795;51.360;4.546;2024-03-02T14:28:17;12.70;65.10
86136;DHT22;76795;51.360;4.546;2024-03-02T14:30:44;12.80;65.10
86136;DHT22;76795;51.360;4.546;2024-03-02T14:33:10;12.80;65.70
86136;DHT22;76795;51.360;4.546;2024-03-02T14:35:36;12.80;65.80
86136;DHT22;76795;51.360;4.546;2024-03-02T14:38:02;12.90;66.70
86136;DHT22;76795;51.360;4.546;2024-03-02T14:40:27;13.00;65.20
86136;DHT22;76795;51.360;4.546;2024-03-02T14:42:54;12.90;65.90
86136;DHT22;76795;51.360;4.546;2024-03-02T14:45:20;12.90;67.50
86136;DHT22;76795;51.360;4.546;2024-03-02T14:47:46;12.80;69.40
86136;DHT22;76795;51.360;4.546;2024-03-02T14:50:12;12.80;69.30
86136;DHT22;76795;51.360;4.546;2024-03-02T14:52:38;12.80;69.40
86136;DHT22;76795;51.360;4.546;2024-03-02T14:55:03;13.30;67.50
86136;DHT22;76795;51.360;4.546;2024-03-02T14:57:29;13.80;66.80
86136;DHT22;76795;51.360;4.546;2024-03-02T14:59:55;13.80;65.60
86136;DHT22;76795;51.360;4.546;2024-03-02T15:02:21;14.00;63.40
86136;DHT22;76795;51.360;4.546;2024-03-02T15:04:47;14.80;61.60
86136;DHT22;76795;51.360;4.546;2024-03-02T15:07:13;15.50;59.70
86136;DHT22;76795;51.360;4.546;2024-03-02T15:09:39;15.40;60.10
86136;DHT22;76795;51.360;4.546;2024-03-02T15:12:06;14.80;60.30
86136;DHT22;76795;51.360;4.546;2024-03-02T15:14:36;14.40;61.10
86136;DHT22;76795;51.360;4.546;2024-03-02T15:17:03;13.90;61.80
86136;DHT22;76795;51.360;4.546;2024-03-02T15:19:29;13.70;63.20
86136;DHT22;76795;51.360;4.546;2024-03-02T15:21:55;13.50;63.50
86136;DHT22;76795;51.360;4.546;2024-03-02T15:24:20;13.30;65.00
86136;DHT22;76795;51.360;4.546;2024-03-02T15:26:46;13.30;66.00
86136;DHT22;76795;51.360;4.546;2024-03-02T15:29:12;13.10;65.70
86136;DHT22;76795;51.360;4.546;2024-03-02T15:31:37;13.00;65.70
86136;DHT22;76795;51.360;4.546;2024-03-02T15:34:05;13.00;66.60
86136;DHT22;76795;51.360;4.546;2024-03-02T15:36:33;13.00;66.10
86136;DHT22;76795;51.360;4.546;2024-03-02T15:38:59;13.00;67.40
86136;DHT22;76795;51.360;4.546;2024-03-02T15:41:24;13.00;66.10
86136;DHT22;76795;51.360;4.546;2024-03-02T15:43:50;13.00;66.20
86136;DHT22;76795;51.360;4.546;2024-03-02T15:46:16;13.00;67.00
86136;DHT22;76795;51.360;4.546;2024-03-02T15:48:41;12.90;67.50